Time;durP1;ratioP1;P1;durP2;ratioP2;P2;SDS_P1;SDS_P2;PMS_P1;PMS_P2;Temp;Humidity;BMP_temperature;BMP_pressure;BME280_temperature;BME280_humidity;BME280_pressure;Samples;Min_cycle;Max_cycle;Signal;HPM_P1;HPM_P2
2022/08/05 00:00:17;;;;;;;4.53;1.83;;;26.30;59.70;;;;;;5095883;28;20239;-75
2022/08/05 00:02:47;;;;;;;6.33;2.60;;;26.30;59.80;;;;;;5081601;28;20198;-75
2022/08/05 00:05:21;;;;;;;7.13;2.27;;;26.30;59.90;;;;;;5083727;28;20659;-75
2022/08/05 00:08:08;;;;;;;6.40;2.30;;;26.20;59.90;;;;;;5086080;28;20205;-75
2022/08/05 00:10:57;;;;;;;5.37;2.67;;;26.20;59.90;;;;;;5096095;28;20195;-76
2022/08/05 00:13:31;;;;;;;5.47;2.50;;;26.20;60.20;;;;;;5087332;28;20578;-77
2022/08/05 00:16:07;;;;;;;8.43;2.30;;;26.20;60.30;;;;;;5085111;28;20249;-75
2022/08/05 00:18:36;;;;;;;4.50;2.60;;;26.20;60.60;;;;;;5079206;28;20212;-75
2022/08/05 00:21:05;;;;;;;4.87;2.50;;;26.10;60.80;;;;;;5087308;28;20197;-75
2022/08/05 00:23:39;;;;;;;4.93;2.30;;;26.10;60.80;;;;;;5084105;28;20304;-75
2022/08/05 00:26:20;;;;;;;7.60;2.20;;;26.10;60.90;;;;;;5082519;28;20190;-75
2022/08/05 00:28:48;;;;;;;4.90;2.37;;;26.10;60.70;;;;;;5097075;28;20259;-75
2022/08/05 00:31:16;;;;;;;3.90;2.50;;;26.10;60.80;;;;;;5085002;28;20193;-75
2022/08/05 00:34:04;;;;;;;4.43;2.00;;;26.00;60.80;;;;;;5085349;28;20220;-75
2022/08/05 00:36:51;;;;;;;6.80;2.57;;;26.00;60.60;;;;;;5086558;28;20557;-76
2022/08/05 00:39:41;;;;;;;3.93;2.37;;;25.90;60.80;;;;;;5089418;28;20261;-76
2022/08/05 00:42:10;;;;;;;5.23;2.37;;;25.80;61.10;;;;;;5103043;28;20542;-76
2022/08/05 00:44:57;;;;;;;6.30;2.70;;;25.80;61.40;;;;;;5096895;28;20224;-76
2022/08/05 00:47:25;;;;;;;6.47;2.50;;;25.80;61.30;;;;;;5104832;28;20593;-76
2022/08/05 00:50:12;;;;;;;3.53;2.60;;;25.70;61.70;;;;;;5078421;28;20222;-76
2022/08/05 00:52:41;;;;;;;8.37;2.87;;;25.60;61.70;;;;;;5084076;28;20631;-75
2022/08/05 00:55:11;;;;;;;6.30;2.80;;;25.60;61.60;;;;;;5087383;28;20550;-75
2022/08/05 00:57:38;;;;;;;5.03;2.23;;;25.60;62.00;;;;;;5089174;28;20217;-76
2022/08/05 01:00:29;;;;;;;8.53;2.47;;;25.60;62.40;;;;;;5093677;28;20236;-76
2022/08/05 01:02:58;;;;;;;3.73;2.50;;;25.50;62.50;;;;;;5101379;28;20709;-76
2022/08/05 01:05:26;;;;;;;6.53;2.70;;;25.50;62.50;;;;;;5102484;28;20229;-75
2022/08/05 01:07:54;;;;;;;2.87;2.60;;;25.50;62.60;;;;;;5082677;28;20216;-75
2022/08/05 01:10:58;;;;;;;8.30;2.70;;;25.40;62.70;;;;;;5084399;28;20185;-75
2022/08/05 01:13:46;;;;;;;8.73;2.87;;;25.40;62.90;;;;;;5100389;28;20657;-75
2022/08/05 01:16:56;;;;;;;6.53;2.53;;;25.40;63.10;;;;;;5082765;28;20555;-75
2022/08/05 01:19:36;;;;;;;8.67;2.93;;;25.30;63.00;;;;;;5064194;28;20300;-77
2022/08/05 01:22:34;;;;;;;7.90;2.37;;;25.30;62.90;;;;;;5088065;28;20193;-76
2022/08/05 01:25:28;;;;;;;3.27;2.37;;;25.30;63.30;;;;;;5086802;28;20312;-77
2022/08/05 01:28:43;;;;;;;8.93;2.80;;;25.20;63.40;;;;;;5082183;28;20221;-76
2022/08/05 01:31:28;;;;;;;4.80;2.70;;;25.20;63.20;;;;;;5082302;28;20669;-76
2022/08/05 01:34:14;;;;;;;3.87;2.40;;;25.20;63.10;;;;;;5093599;28;20300;-76
2022/08/05 01:36:53;;;;;;;3.00;2.30;;;25.20;63.20;;;;;;5090443;28;20655;-77
2022/08/05 01:39:21;;;;;;;4.13;2.57;;;25.10;63.30;;;;;;5105955;28;20554;-77
2022/08/05 01:42:13;;;;;;;3.70;2.50;;;25.10;63.40;;;;;;5103952;27;20209;-77
2022/08/05 01:44:42;;;;;;;3.90;2.30;;;25.10;63.40;;;;;;5084958;28;20315;-75
2022/08/05 01:47:14;;;;;;;6.30;2.40;;;25.10;63.40;;;;;;5087809;28;20201;-75
2022/08/05 01:49:41;;;;;;;4.63;2.63;;;25.10;63.60;;;;;;5104440;28;20197;-75
2022/08/05 01:52:33;;;;;;;7.53;2.57;;;25.10;63.60;;;;;;5090586;28;20703;-76
2022/08/05 01:55:08;;;;;;;3.83;2.60;;;25.10;63.70;;;;;;5094250;28;20670;-75
2022/08/05 01:57:40;;;;;;;4.00;2.90;;;25.00;63.80;;;;;;5084505;28;20198;-75
2022/08/05 02:00:30;;;;;;;8.33;2.43;;;25.00;64.00;;;;;;5086985;28;20235;-75
2022/08/05 02:03:19;;;;;;;5.93;2.60;;;25.00;64.00;;;;;;5082242;28;20213;-75
2022/08/05 02:06:00;;;;;;;8.50;2.90;;;24.90;64.10;;;;;;5084190;28;20232;-75
2022/08/05 02:08:49;;;;;;;11.47;3.23;;;24.80;64.40;;;;;;5082758;28;21051;-75
2022/08/05 02:11:31;;;;;;;7.90;3.00;;;24.80;64.80;;;;;;5094464;28;20518;-75
2022/08/05 02:14:02;;;;;;;6.63;3.40;;;24.80;65.00;;;;;;5076206;28;20212;-75
2022/08/05 02:16:47;;;;;;;6.57;2.87;;;24.70;65.00;;;;;;5087099;28;20638;-75
2022/08/05 02:19:41;;;;;;;5.23;3.37;;;24.70;65.20;;;;;;5085747;28;20195;-76
2022/08/05 02:22:29;;;;;;;5.33;3.00;;;24.60;65.30;;;;;;5080622;28;20202;-76
2022/08/05 02:25:07;;;;;;;6.17;3.30;;;24.60;65.30;;;;;;5084795;28;20671;-76
2022/08/05 02:27:40;;;;;;;11.10;3.40;;;24.60;65.30;;;;;;5083525;28;20511;-75
2022/08/05 02:30:31;;;;;;;6.37;2.97;;;24.60;65.40;;;;;;5090587;28;20217;-76
2022/08/05 02:33:02;;;;;;;7.60;3.80;;;24.50;65.80;;;;;;5082618;28;20270;-76
2022/08/05 02:35:33;;;;;;;6.53;3.27;;;24.50;66.20;;;;;;5085657;28;20205;-76
2022/08/05 02:38:12;;;;;;;4.00;2.80;;;24.50;66.50;;;;;;5082778;28;20258;-76
2022/08/05 02:40:45;;;;;;;9.40;3.47;;;24.50;66.40;;;;;;5083414;28;20258;-76
2022/08/05 02:43:14;;;;;;;5.97;3.53;;;24.40;66.50;;;;;;5082865;28;20221;-76
2022/08/05 02:45:42;;;;;;;9.43;3.10;;;24.40;66.70;;;;;;5099785;27;20217;-76
2022/08/05 02:48:21;;;;;;;7.03;3.20;;;24.40;66.90;;;;;;5087586;28;20295;-76
2022/08/05 02:51:01;;;;;;;4.67;2.83;;;24.40;66.80;;;;;;5100531;27;20228;-75
2022/08/05 02:53:31;;;;;;;7.30;3.33;;;24.30;66.80;;;;;;5073422;28;20202;-77
2022/08/05 02:56:06;;;;;;;6.10;3.00;;;24.30;67.00;;;;;;5091063;28;20211;-76
2022/08/05 02:58:37;;;;;;;4.70;3.03;;;24.20;67.10;;;;;;5083958;28;20197;-77
2022/08/05 03:01:15;;;;;;;5.90;3.20;;;24.30;67.30;;;;;;5085185;28;20209;-75
2022/08/05 03:03:50;;;;;;;5.93;2.80;;;24.20;67.00;;;;;;5080853;28;20209;-74
2022/08/05 03:06:35;;;;;;;5.17;3.00;;;24.20;67.80;;;;;;5086646;28;20631;-75
2022/08/05 03:09:22;;;;;;;6.53;3.67;;;24.10;67.30;;;;;;5082419;28;20201;-75
2022/08/05 03:12:03;;;;;;;7.43;3.17;;;24.00;67.70;;;;;;5081629;28;20639;-75
2022/08/05 03:14:30;;;;;;;4.23;2.90;;;24.00;68.10;;;;;;5088308;28;20206;-75
2022/08/05 03:16:58;;;;;;;9.43;3.40;;;23.90;68.40;;;;;;5084115;28;20237;-76
2022/08/05 03:19:26;;;;;;;4.53;3.47;;;23.90;68.60;;;;;;5094728;28;20450;-76
2022/08/05 03:22:00;;;;;;;8.63;3.20;;;23.90;68.80;;;;;;5102056;28;20933;-76
2022/08/05 03:24:30;;;;;;;7.03;2.87;;;23.80;69.00;;;;;;5093368;28;20659;-76
2022/08/05 03:27:01;;;;;;;3.47;3.07;;;23.80;68.80;;;;;;5092189;28;20287;-77
2022/08/05 03:29:28;;;;;;;8.50;3.10;;;23.80;68.90;;;;;;5087547;28;20213;-75
2022/08/05 03:32:18;;;;;;;9.47;3.27;;;23.80;70.10;;;;;;5090283;28;20189;-75
2022/08/05 03:34:46;;;;;;;3.70;3.40;;;23.80;69.60;;;;;;5079546;28;20225;-75
2022/08/05 03:37:18;;;;;;;7.50;3.07;;;23.70;70.30;;;;;;5101752;28;20201;-75
2022/08/05 03:39:57;;;;;;;8.70;3.70;;;23.70;70.20;;;;;;5100226;28;20229;-75
2022/08/05 03:42:30;;;;;;;4.33;3.60;;;23.70;69.80;;;;;;5088614;28;20196;-77
2022/08/05 03:45:08;;;;;;;5.53;3.30;;;23.70;69.50;;;;;;5083064;28;20302;-77
2022/08/05 03:47:49;;;;;;;11.00;3.70;;;23.70;69.50;;;;;;5081041;28;20197;-76
2022/08/05 03:50:17;;;;;;;8.70;3.90;;;23.70;69.60;;;;;;5087488;28;20204;-76
2022/08/05 03:53:13;;;;;;;5.37;4.00;;;23.70;69.80;;;;;;5087281;28;20216;-77
2022/08/05 03:56:23;;;;;;;6.37;3.13;;;23.70;69.70;;;;;;5099517;28;20201;-76
2022/08/05 03:59:02;;;;;;;4.30;3.63;;;23.70;69.60;;;;;;5082768;28;20204;-75
2022/08/05 04:01:33;;;;;;;7.63;3.17;;;23.60;69.80;;;;;;5101661;28;20697;-75
2022/08/05 04:04:02;;;;;;;3.97;3.47;;;23.60;70.00;;;;;;5097640;28;20314;-75
2022/08/05 04:06:37;;;;;;;5.80;3.70;;;23.60;70.00;;;;;;5101735;28;20826;-75
2022/08/05 04:09:15;;;;;;;3.60;3.30;;;23.60;70.30;;;;;;5084672;28;20197;-76
2022/08/05 04:11:54;;;;;;;6.00;3.20;;;23.60;70.40;;;;;;5078800;28;20212;-76
2022/08/05 04:14:24;;;;;;;6.30;3.20;;;23.60;70.30;;;;;;5095492;28;20709;-75
2022/08/05 04:16:57;;;;;;;5.17;3.33;;;23.60;70.40;;;;;;5093744;28;20615;-76
2022/08/05 04:19:26;;;;;;;5.50;3.43;;;23.60;70.30;;;;;;5096127;28;20280;-77
2022/08/05 04:21:53;;;;;;;3.77;3.23;;;23.60;70.30;;;;;;5093950;28;20202;-77
2022/08/05 04:24:38;;;;;;;3.80;3.37;;;23.60;70.20;;;;;;5094583;28;20193;-77
2022/08/05 04:27:18;;;;;;;3.53;2.70;;;23.60;69.90;;;;;;5087458;28;20550;-77
2022/08/05 04:30:06;;;;;;;4.10;3.20;;;23.60;69.80;;;;;;5089161;28;20221;-77
2022/08/05 04:32:35;;;;;;;3.47;3.13;;;23.60;69.90;;;;;;5090321;28;20214;-78
2022/08/05 04:35:04;;;;;;;4.30;3.40;;;23.60;70.10;;;;;;5078038;28;20209;-77
2022/08/05 04:37:32;;;;;;;4.53;3.07;;;23.70;70.60;;;;;;5101091;27;20266;-77
2022/08/05 04:40:19;;;;;;;6.53;3.97;;;23.70;71.00;;;;;;5096406;28;20295;-76
2022/08/05 04:42:46;;;;;;;5.97;3.50;;;23.80;71.00;;;;;;5084828;28;20666;-76
2022/08/05 04:45:14;;;;;;;6.83;3.87;;;23.80;70.80;;;;;;5075023;28;20229;-75
2022/08/05 04:48:09;;;;;;;4.17;3.50;;;23.90;70.70;;;;;;5100471;28;20663;-76
2022/08/05 04:50:54;;;;;;;4.83;3.50;;;23.90;70.80;;;;;;5092227;28;20202;-75
2022/08/05 04:53:35;;;;;;;8.60;4.27;;;23.90;70.50;;;;;;5095397;28;20201;-75
2022/08/05 04:56:08;;;;;;;3.83;3.40;;;24.00;70.40;;;;;;5105011;28;20205;-75
2022/08/05 04:58:55;;;;;;;8.00;4.23;;;24.10;70.60;;;;;;5088384;28;20258;-75
2022/08/05 05:01:22;;;;;;;6.00;3.77;;;24.10;70.50;;;;;;5090120;28;20206;-75
2022/08/05 05:04:09;;;;;;;5.83;3.70;;;24.20;70.60;;;;;;5090282;28;20208;-75
2022/08/05 05:06:37;;;;;;;3.77;3.43;;;24.20;70.50;;;;;;5102941;28;20225;-75
2022/08/05 05:09:15;;;;;;;7.37;3.93;;;24.30;70.50;;;;;;5106466;28;20196;-74
2022/08/05 05:11:44;;;;;;;5.00;4.50;;;24.30;70.60;;;;;;5089442;28;20556;-74
2022/08/05 05:14:22;;;;;;;5.33;4.07;;;24.40;70.50;;;;;;5080361;28;20917;-74
2022/08/05 05:16:59;;;;;;;4.90;3.80;;;24.50;70.30;;;;;;5083749;28;20259;-75
2022/08/05 05:19:26;;;;;;;5.07;3.70;;;24.60;69.90;;;;;;5091625;28;20224;-74
2022/08/05 05:22:05;;;;;;;4.00;3.70;;;24.70;69.50;;;;;;5087900;28;20206;-74
2022/08/05 05:24:54;;;;;;;6.07;4.10;;;24.80;69.20;;;;;;5074883;28;20220;-74
2022/08/05 05:27:30;;;;;;;5.37;3.43;;;25.00;69.00;;;;;;5085243;28;20205;-74
2022/08/05 05:30:15;;;;;;;6.37;4.23;;;25.20;68.50;;;;;;5087624;28;20621;-74
2022/08/05 05:32:59;;;;;;;5.80;3.20;;;25.40;67.80;;;;;;5092322;28;20207;-74
2022/08/05 05:35:45;;;;;;;3.93;3.60;;;25.60;67.10;;;;;;5083827;28;20211;-74
2022/08/05 05:38:14;;;;;;;4.23;3.40;;;25.80;66.30;;;;;;5084798;28;20212;-74
2022/08/05 05:40:56;;;;;;;3.77;2.97;;;26.10;65.40;;;;;;5086049;28;20208;-74
2022/08/05 05:43:23;;;;;;;5.57;3.33;;;26.30;64.60;;;;;;5085803;28;20285;-74
2022/08/05 05:46:10;;;;;;;3.33;2.87;;;26.50;63.80;;;;;;5086945;28;20220;-74
2022/08/05 05:48:45;;;;;;;9.70;2.80;;;26.70;63.00;;;;;;5095836;28;20215;-74
2022/08/05 05:51:32;;;;;;;2.97;2.67;;;26.90;62.80;;;;;;5083827;28;20219;-74
2022/08/05 05:54:16;;;;;;;5.80;2.70;;;27.00;62.10;;;;;;5080116;28;20248;-74
2022/08/05 05:56:46;;;;;;;3.00;2.70;;;27.20;61.40;;;;;;5085993;28;20217;-74
2022/08/05 05:59:13;;;;;;;4.40;2.90;;;27.30;60.50;;;;;;5097739;28;20265;-74
2022/08/05 06:01:41;;;;;;;3.50;2.90;;;27.40;59.90;;;;;;5090991;28;20205;-74
2022/08/05 06:04:24;;;;;;;14.93;8.17;;;27.60;59.80;;;;;;5091171;28;20750;-75
2022/08/05 06:06:51;;;;;;;17.80;9.47;;;27.70;59.20;;;;;;5071942;28;20236;-75
2022/08/05 06:09:18;;;;;;;16.40;10.10;;;27.80;58.50;;;;;;5085667;28;20530;-75
2022/08/05 06:12:06;;;;;;;11.27;6.20;;;27.90;57.40;;;;;;5090104;28;20215;-77
2022/08/05 06:14:36;;;;;;;5.77;2.93;;;28.10;56.90;;;;;;5102475;28;20198;-75
2022/08/05 06:17:06;;;;;;;4.40;2.50;;;28.20;56.10;;;;;;5099468;28;20209;-75
2022/08/05 06:19:50;;;;;;;5.40;2.40;;;28.40;55.70;;;;;;5091475;28;20198;-76
2022/08/05 06:22:30;;;;;;;3.83;2.63;;;28.50;55.50;;;;;;5101344;28;20230;-76
2022/08/05 06:25:01;;;;;;;2.57;2.37;;;28.60;54.70;;;;;;5087922;28;20585;-76
2022/08/05 06:27:48;;;;;;;4.37;2.40;;;28.80;54.50;;;;;;5087089;28;20266;-77
2022/08/05 06:30:35;;;;;;;2.53;2.33;;;28.90;54.90;;;;;;5087300;28;20531;-76
2022/08/05 06:33:02;;;;;;;6.07;2.50;;;29.10;54.50;;;;;;5100252;28;20665;-75
2022/08/05 06:35:30;;;;;;;2.57;2.37;;;29.10;54.20;;;;;;5099650;28;20206;-76
2022/08/05 06:38:17;;;;;;;6.20;2.60;;;29.30;54.00;;;;;;5085784;28;20216;-75
2022/08/05 06:41:07;;;;;;;3.70;2.47;;;29.50;53.60;;;;;;5098923;28;20224;-75
2022/08/05 06:43:37;;;;;;;6.50;2.80;;;29.60;53.30;;;;;;5082528;28;20208;-75
2022/08/05 06:46:25;;;;;;;6.90;2.63;;;29.80;53.40;;;;;;5095580;28;20220;-75
2022/08/05 06:48:57;;;;;;;4.53;2.70;;;29.90;52.40;;;;;;5085931;28;20190;-75
2022/08/05 06:51:27;;;;;;;5.27;2.33;;;30.00;52.20;;;;;;5087931;28;20202;-76
2022/08/05 06:54:02;;;;;;;2.60;2.40;;;30.30;51.90;;;;;;5091330;28;20206;-75
2022/08/05 06:56:31;;;;;;;4.67;2.53;;;30.40;52.00;;;;;;5102055;28;20217;-75
2022/08/05 06:59:05;;;;;;;6.97;2.70;;;30.60;51.70;;;;;;5090742;28;20213;-76
2022/08/05 07:01:35;;;;;;;2.93;2.57;;;30.70;50.70;;;;;;5103582;27;20216;-78
2022/08/05 07:04:07;;;;;;;6.13;2.50;;;30.90;50.40;;;;;;5098854;28;20257;-76
2022/08/05 07:06:34;;;;;;;6.37;2.30;;;31.00;50.00;;;;;;5083479;28;20221;-76
2022/08/05 07:09:02;;;;;;;3.47;2.73;;;31.20;49.10;;;;;;5070591;28;20263;-75
2022/08/05 07:11:32;;;;;;;3.70;2.70;;;31.30;48.40;;;;;;5089254;28;20201;-75
2022/08/05 07:16:59;;;;;;;8.60;2.77;;;31.60;47.70;;;;;;5081403;28;20193;-76
2022/08/05 07:19:47;;;;;;;9.30;2.80;;;31.70;47.90;;;;;;5083613;28;20197;-77
2022/08/05 07:22:34;;;;;;;4.93;2.93;;;31.80;47.90;;;;;;5086505;28;20205;-76
2022/08/05 07:25:04;;;;;;;4.10;2.80;;;31.90;47.30;;;;;;5076283;28;20625;-76
2022/08/05 07:27:53;;;;;;;3.33;3.00;;;32.00;47.00;;;;;;5073850;28;20220;-77
2022/08/05 07:30:26;;;;;;;5.20;3.03;;;32.20;46.70;;;;;;5072367;28;20206;-76
2022/08/05 07:33:02;;;;;;;3.73;2.50;;;32.20;46.80;;;;;;5084705;28;20204;-76
2022/08/05 07:35:35;;;;;;;3.43;2.53;;;32.40;46.20;;;;;;5083699;28;20197;-76
2022/08/05 07:38:22;;;;;;;5.43;2.87;;;32.40;45.90;;;;;;5085043;28;20193;-76
2022/08/05 07:41:06;;;;;;;6.00;2.70;;;32.50;45.80;;;;;;5083181;28;20205;-77
2022/08/05 07:43:54;;;;;;;3.37;2.70;;;32.60;45.80;;;;;;5085418;28;20316;-76
2022/08/05 07:46:27;;;;;;;2.73;2.40;;;32.80;46.00;;;;;;5091196;28;20217;-76
2022/08/05 07:48:57;;;;;;;2.60;2.40;;;32.90;45.70;;;;;;5091073;28;20193;-76
2022/08/05 07:51:36;;;;;;;3.43;2.80;;;33.00;45.10;;;;;;5102894;28;20193;-76
2022/08/05 07:54:25;;;;;;;6.17;2.40;;;33.20;44.50;;;;;;5091324;28;20209;-77
2022/08/05 07:57:03;;;;;;;4.00;2.43;;;33.30;43.80;;;;;;5092296;28;20219;-78
2022/08/05 07:59:51;;;;;;;7.70;2.70;;;33.40;42.60;;;;;;5103398;28;20336;-77
2022/08/05 08:02:26;;;;;;;3.57;2.73;;;33.40;42.40;;;;;;5103773;27;20210;-76
2022/08/05 08:04:57;;;;;;;5.60;2.90;;;33.50;42.40;;;;;;5083139;28;20646;-76
2022/08/05 08:07:25;;;;;;;3.30;3.00;;;33.40;43.20;;;;;;5084752;28;20221;-76
2022/08/05 08:09:54;;;;;;;4.83;3.27;;;33.50;43.10;;;;;;5083928;28;20197;-77
2022/08/05 08:12:23;;;;;;;7.40;3.03;;;33.60;42.20;;;;;;5084118;28;20635;-76
2022/08/05 08:15:05;;;;;;;4.17;2.60;;;33.70;42.60;;;;;;5101370;27;20655;-76
2022/08/05 08:17:41;;;;;;;11.67;3.23;;;33.80;43.00;;;;;;5083814;28;20212;-76
2022/08/05 08:20:18;;;;;;;5.60;2.80;;;33.90;43.00;;;;;;5089672;28;20209;-76
2022/08/05 08:23:06;;;;;;;3.10;2.80;;;34.20;42.70;;;;;;5086659;28;20500;-76
2022/08/05 08:25:53;;;;;;;4.10;3.10;;;34.40;42.00;;;;;;5080759;28;20214;-76
2022/08/05 08:28:29;;;;;;;2.13;1.90;;;34.60;41.10;;;;;;5103180;28;20206;-77
2022/08/05 08:31:19;;;;;;;3.23;2.20;;;34.70;40.70;;;;;;5086586;28;20209;-76
2022/08/05 08:33:49;;;;;;;5.40;2.23;;;34.80;40.30;;;;;;5085205;28;20280;-76
2022/08/05 08:36:19;;;;;;;2.47;2.27;;;35.00;40.70;;;;;;5081146;28;20655;-77
2022/08/05 08:39:06;;;;;;;3.07;2.70;;;35.10;40.40;;;;;;5085373;28;20725;-76
2022/08/05 08:41:46;;;;;;;11.13;5.30;;;35.20;40.50;;;;;;5088082;28;20915;-77
2022/08/05 08:44:29;;;;;;;5.97;2.80;;;35.30;40.70;;;;;;5090410;28;20218;-77
2022/08/05 08:47:20;;;;;;;3.38;2.40;;;35.50;40.40;;;;;;5077165;28;20232;-77
2022/08/05 08:50:11;;;;;;;2.77;2.47;;;35.70;40.00;;;;;;5112973;28;20233;-78
2022/08/05 08:53:04;;;;;;;4.40;2.40;;;35.80;39.80;;;;;;5088640;28;20201;-77
2022/08/05 08:55:39;;;;;;;3.63;2.17;;;36.00;39.30;;;;;;5093054;28;20327;-76
2022/08/05 08:58:27;;;;;;;4.43;2.67;;;36.10;38.90;;;;;;5076432;28;20675;-76
2022/08/05 09:01:14;;;;;;;3.70;2.20;;;36.20;38.50;;;;;;5101035;28;20213;-76
2022/08/05 09:03:52;;;;;;;7.93;2.50;;;36.30;38.30;;;;;;5108475;28;20201;-77
2022/08/05 09:06:24;;;;;;;2.88;2.20;;;36.40;38.10;;;;;;5089877;28;20217;-76
2022/08/05 09:08:59;;;;;;;2.10;1.98;;;36.60;38.40;;;;;;5097815;28;20690;-77
2022/08/05 09:11:28;;;;;;;2.72;2.28;;;36.70;38.50;;;;;;5083323;28;20620;-76
2022/08/05 09:14:15;;;;;;;3.13;2.45;;;36.80;38.40;;;;;;5093533;28;20208;-78
2022/08/05 09:17:08;;;;;;;2.50;2.30;;;37.00;38.10;;;;;;5088091;28;20621;-77
2022/08/05 09:19:55;;;;;;;6.40;2.63;;;37.10;37.50;;;;;;5099599;28;20207;-76
2022/08/05 09:23:10;;;;;;;2.30;2.10;;;37.30;36.90;;;;;;5084611;28;20235;-76
2022/08/05 09:25:51;;;;;;;3.45;2.40;;;37.40;36.50;;;;;;5083867;28;20239;-78
2022/08/05 09:28:29;;;;;;;7.03;2.22;;;37.60;35.90;;;;;;5084219;28;20604;-76
2022/08/05 09:31:05;;;;;;;5.10;2.70;;;37.70;35.70;;;;;;5084003;28;20206;-76
2022/08/05 09:33:53;;;;;;;3.67;2.35;;;37.80;36.00;;;;;;5084124;28;20549;-76
2022/08/05 09:36:22;;;;;;;3.38;2.55;;;37.90;36.00;;;;;;5086217;28;20663;-77
2022/08/05 09:39:03;;;;;;;3.67;1.90;;;38.00;35.60;;;;;;5085031;28;20605;-77
2022/08/05 09:41:54;;;;;;;4.22;2.40;;;38.00;34.00;;;;;;5087967;28;20217;-75
2022/08/05 09:44:42;;;;;;;6.32;2.10;;;38.00;34.20;;;;;;5081069;28;20204;-76
2022/08/05 09:47:14;;;;;;;1.90;1.80;;;38.10;34.40;;;;;;5100808;28;20320;-76
2022/08/05 09:49:51;;;;;;;3.15;1.90;;;38.20;33.80;;;;;;5085632;28;20653;-76
2022/08/05 09:52:34;;;;;;;1.92;1.83;;;38.20;33.60;;;;;;5073842;28;20201;-76
2022/08/05 09:55:01;;;;;;;2.10;1.70;;;38.30;33.50;;;;;;5080134;28;20228;-76
2022/08/05 09:57:48;;;;;;;3.88;1.70;;;38.40;33.10;;;;;;5079376;28;20201;-77
2022/08/05 10:00:24;;;;;;;2.45;1.77;;;38.50;33.00;;;;;;5082569;28;20229;-77
2022/08/05 10:02:53;;;;;;;2.80;1.70;;;38.60;32.90;;;;;;5100124;28;20224;-77
2022/08/05 10:05:27;;;;;;;1.80;1.70;;;38.70;33.00;;;;;;5088099;28;20309;-77
2022/08/05 10:07:58;;;;;;;1.60;1.50;;;38.80;32.90;;;;;;5090012;28;20226;-77
2022/08/05 10:10:47;;;;;;;3.90;1.88;;;38.90;32.50;;;;;;5082789;28;20213;-77
2022/08/05 10:13:26;;;;;;;2.45;1.98;;;39.00;32.30;;;;;;5090854;28;20207;-77
2022/08/05 10:16:33;;;;;;;5.10;1.88;;;38.90;31.80;;;;;;5084564;28;20650;-77
2022/08/05 10:19:19;;;;;;;3.95;1.90;;;39.00;32.00;;;;;;5086916;28;20270;-76
2022/08/05 10:21:58;;;;;;;3.05;2.10;;;38.90;32.10;;;;;;5071679;28;20391;-76
2022/08/05 10:24:25;;;;;;;2.88;1.83;;;38.90;32.20;;;;;;5083697;28;20597;-77
2022/08/05 10:26:55;;;;;;;4.18;1.90;;;39.10;32.10;;;;;;5094119;28;20298;-76
2022/08/05 10:29:31;;;;;;;2.72;1.75;;;39.20;31.50;;;;;;5084605;28;20217;-76
2022/08/05 10:32:18;;;;;;;4.07;1.70;;;39.20;30.50;;;;;;5089635;28;20224;-76
2022/08/05 10:35:06;;;;;;;1.88;1.70;;;39.10;31.10;;;;;;5100136;28;20201;-76
2022/08/05 10:37:35;;;;;;;2.55;2.10;;;39.10;31.70;;;;;;5079457;28;20204;-77
2022/08/05 10:40:37;;;;;;;5.07;1.73;;;39.10;31.40;;;;;;5082326;28;20213;-76
2022/08/05 10:43:32;;;;;;;2.25;1.80;;;39.10;31.20;;;;;;5097881;28;20236;-77
2022/08/05 10:46:07;;;;;;;3.03;1.60;;;39.00;31.30;;;;;;5085085;28;20205;-77
2022/08/05 10:48:38;;;;;;;2.10;1.90;;;38.90;31.70;;;;;;5084451;28;20266;-77
2022/08/05 10:51:24;;;;;;;5.60;1.70;;;39.00;31.90;;;;;;5094656;28;20259;-77
2022/08/05 10:53:59;;;;;;;3.05;2.25;;;39.10;32.00;;;;;;5087893;28;20202;-77
2022/08/05 10:56:49;;;;;;;5.70;1.63;;;39.20;31.70;;;;;;5081465;28;20654;-77
2022/08/05 10:59:25;;;;;;;2.38;1.70;;;39.30;31.10;;;;;;5086412;28;20243;-77
2022/08/05 11:02:13;;;;;;;1.95;1.73;;;39.40;30.10;;;;;;5078036;28;20216;-77
2022/08/05 11:05:07;;;;;;;5.18;2.20;;;39.40;30.70;;;;;;5085148;28;20197;-77
2022/08/05 11:07:56;;;;;;;3.03;2.13;;;39.50;30.80;;;;;;5096747;28;20643;-77
2022/08/05 11:10:36;;;;;;;2.53;1.90;;;39.70;30.10;;;;;;5082616;28;20202;-77
2022/08/05 11:13:05;;;;;;;2.13;1.85;;;39.70;31.00;;;;;;5098195;28;20202;-77
2022/08/05 11:15:40;;;;;;;2.58;1.80;;;39.80;31.20;;;;;;5094068;28;20232;-77
2022/08/05 11:18:28;;;;;;;2.00;1.90;;;39.80;31.00;;;;;;5081837;28;20641;-77
2022/08/05 11:21:01;;;;;;;1.67;1.58;;;39.90;30.30;;;;;;5099122;28;20669;-77
2022/08/05 11:23:42;;;;;;;1.80;1.63;;;39.80;30.70;;;;;;5070108;28;20201;-77
2022/08/05 11:26:29;;;;;;;2.08;1.95;;;39.70;30.00;;;;;;5081519;28;20221;-77
2022/08/05 11:29:01;;;;;;;3.08;1.75;;;39.60;30.20;;;;;;5086005;28;20285;-77
2022/08/05 11:31:41;;;;;;;1.85;1.73;;;39.60;31.80;;;;;;5096780;28;20204;-77
2022/08/05 11:34:40;;;;;;;7.75;2.10;;;39.70;31.30;;;;;;5083467;28;20197;-77
2022/08/05 11:37:40;;;;;;;2.17;1.73;;;39.70;31.10;;;;;;5098330;28;20212;-77
2022/08/05 11:40:59;;;;;;;2.30;2.10;;;39.90;30.70;;;;;;5094855;28;20231;-77
2022/08/05 11:44:02;;;;;;;3.10;1.77;;;40.00;30.50;;;;;;5097742;28;20203;-77
2022/08/05 11:46:41;;;;;;;5.95;1.90;;;39.90;30.10;;;;;;5080955;28;20325;-78
2022/08/05 11:49:29;;;;;;;3.28;1.73;;;39.80;31.30;;;;;;5089198;28;20201;-77
2022/08/05 11:52:00;;;;;;;2.20;1.88;;;39.60;30.90;;;;;;5087037;28;20270;-77
2022/08/05 11:54:38;;;;;;;6.45;1.88;;;39.70;30.80;;;;;;5082307;28;20210;-77
2022/08/05 11:57:07;;;;;;;3.67;1.80;;;39.80;30.70;;;;;;5084689;28;20275;-77
2022/08/05 11:59:52;;;;;;;1.98;1.88;;;39.90;31.10;;;;;;5081405;28;20321;-77
2022/08/05 12:02:25;;;;;;;3.83;1.55;;;40.00;30.00;;;;;;5071172;28;20224;-77
2022/08/05 12:05:01;;;;;;;2.45;1.80;;;40.00;30.30;;;;;;5083061;28;20224;-77
2022/08/05 12:07:37;;;;;;;4.38;2.15;;;39.90;30.10;;;;;;5085198;28;20216;-77
2022/08/05 12:10:30;;;;;;;1.80;1.63;;;39.70;30.00;;;;;;5093519;28;20205;-77
2022/08/05 12:13:14;;;;;;;2.97;1.90;;;39.60;30.60;;;;;;5081520;28;20285;-77
2022/08/05 12:15:45;;;;;;;2.30;1.90;;;39.60;30.40;;;;;;5071126;28;20202;-77
2022/08/05 12:18:27;;;;;;;1.90;1.70;;;39.60;30.00;;;;;;5079454;28;20688;-77
2022/08/05 12:21:29;;;;;;;5.68;2.00;;;39.50;30.20;;;;;;5087120;28;20209;-76
2022/08/05 12:24:03;;;;;;;4.60;1.80;;;39.50;30.30;;;;;;5087268;28;20201;-77
2022/08/05 12:26:35;;;;;;;4.10;1.60;;;39.40;29.90;;;;;;5090798;28;20211;-77
2022/08/05 12:29:05;;;;;;;1.92;1.70;;;39.30;30.50;;;;;;5088152;28;20236;-77
2022/08/05 12:31:36;;;;;;;2.03;1.90;;;39.40;30.80;;;;;;5085948;28;20538;-77
2022/08/05 12:34:17;;;;;;;2.55;1.70;;;39.40;30.00;;;;;;5084837;28;20703;-76
2022/08/05 12:36:49;;;;;;;2.40;2.15;;;39.40;30.10;;;;;;5093030;28;20643;-77
2022/08/05 12:39:16;;;;;;;4.30;2.05;;;39.30;30.20;;;;;;5099165;28;20224;-76
2022/08/05 12:41:44;;;;;;;2.97;1.75;;;39.40;31.10;;;;;;5084481;28;20217;-77
2022/08/05 12:44:14;;;;;;;4.40;1.70;;;39.30;30.00;;;;;;5089686;28;20209;-77
2022/08/05 12:47:00;;;;;;;2.83;2.30;;;39.40;30.10;;;;;;5073627;28;20317;-77
2022/08/05 12:49:39;;;;;;;4.50;1.88;;;39.30;30.60;;;;;;5091033;28;20244;-77
2022/08/05 12:52:27;;;;;;;3.25;1.83;;;39.30;30.70;;;;;;5085671;28;20710;-77
2022/08/05 12:55:14;;;;;;;6.13;1.67;;;39.40;30.40;;;;;;5072090;28;20570;-77
2022/08/05 12:57:41;;;;;;;2.30;2.10;;;39.50;30.00;;;;;;5087286;28;20296;-77
2022/08/05 13:00:30;;;;;;;2.00;1.90;;;39.50;30.20;;;;;;5091672;28;20228;-77
2022/08/05 13:03:17;;;;;;;3.78;1.85;;;39.50;30.00;;;;;;5083899;28;20197;-77
2022/08/05 13:05:47;;;;;;;4.32;1.77;;;39.50;30.20;;;;;;5084209;28;20194;-77
2022/08/05 13:08:19;;;;;;;4.20;2.10;;;39.40;30.10;;;;;;5082904;28;20224;-75
2022/08/05 13:10:46;;;;;;;2.08;1.88;;;39.40;30.60;;;;;;5092123;28;20212;-76
2022/08/05 13:13:20;;;;;;;1.60;1.50;;;39.30;30.70;;;;;;5101863;28;20537;-76
2022/08/05 13:16:15;;;;;;;4.00;1.98;;;39.30;30.60;;;;;;5090847;28;20239;-76
2022/08/05 13:18:56;;;;;;;2.10;1.90;;;39.30;30.70;;;;;;5082182;28;20669;-76
2022/08/05 13:21:25;;;;;;;3.25;1.98;;;39.30;30.80;;;;;;5075546;28;20205;-76
2022/08/05 13:24:04;;;;;;;4.72;2.20;;;39.20;30.60;;;;;;5079592;28;20293;-75
2022/08/05 13:26:31;;;;;;;2.38;2.08;;;39.30;30.90;;;;;;5084103;28;20197;-75
2022/08/05 13:28:59;;;;;;;2.10;2.00;;;39.30;30.60;;;;;;5091801;28;20221;-76
2022/08/05 13:31:26;;;;;;;3.47;1.70;;;39.30;30.60;;;;;;5077601;28;20548;-77
2022/08/05 13:34:14;;;;;;;2.10;1.95;;;39.20;30.40;;;;;;5086625;28;20225;-77
2022/08/05 13:36:52;;;;;;;5.40;2.00;;;39.10;30.40;;;;;;5098319;28;20225;-76
2022/08/05 13:39:19;;;;;;;2.83;1.80;;;39.00;30.50;;;;;;5100869;27;20193;-77
2022/08/05 13:42:07;;;;;;;2.47;1.80;;;39.00;30.70;;;;;;5096218;28;20202;-76
2022/08/05 13:44:42;;;;;;;2.53;2.20;;;38.90;30.30;;;;;;5100009;28;20258;-76
2022/08/05 13:47:15;;;;;;;2.65;1.83;;;38.90;30.40;;;;;;5091509;28;20278;-75